sensor_id;sensor_type;location;lat;lon;timestamp;P1;durP1;ratioP1;P2;durP2;ratioP2
45792;SDS011;31495;42.740;22.908;2022-11-12T00:00:24;26.95;;;14.27;;
45792;SDS011;31495;42.740;22.908;2022-11-12T00:01:24;28.48;;;15.02;;
45792;SDS011;31495;42.740;22.908;2022-11-12T00:02:23;29.45;;;13.80;;
45792;SDS011;31495;42.740;22.908;2022-11-12T00:03:23;24.23;;;13.57;;
45792;SDS011;31495;42.740;22.908;2022-11-12T00:04:23;31.45;;;14.70;;
45792;SDS011;31495;42.740;22.908;2022-11-12T00:05:22;26.35;;;12.65;;
45792;SDS011;31495;42.740;22.908;2022-11-12T00:06:21;31.00;;;15.30;;
45792;SDS011;31495;42.740;22.908;2022-11-12T00:07:21;25.80;;;13.60;;
45792;SDS011;31495;42.740;22.908;2022-11-12T00:08:21;30.30;;;14.10;;
45792;SDS011;31495;42.740;22.908;2022-11-12T00:09:20;25.88;;;13.75;;
45792;SDS011;31495;42.740;22.908;2022-11-12T00:10:20;26.85;;;14.70;;
45792;SDS011;31495;42.740;22.908;2022-11-12T00:11:20;27.23;;;14.48;;
45792;SDS011;31495;42.740;22.908;2022-11-12T00:12:19;27.88;;;15.40;;
45792;SDS011;31495;42.740;22.908;2022-11-12T00:13:18;27.75;;;14.23;;
45792;SDS011;31495;42.740;22.908;2022-11-12T00:14:18;35.55;;;14.98;;
45792;SDS011;31495;42.740;22.908;2022-11-12T00:15:17;28.50;;;15.15;;
45792;SDS011;31495;42.740;22.908;2022-11-12T00:16:17;30.35;;;14.77;;
45792;SDS011;31495;42.740;22.908;2022-11-12T00:17:17;26.15;;;12.50;;
45792;SDS011;31495;42.740;22.908;2022-11-12T00:18:16;28.17;;;14.07;;
45792;SDS011;31495;42.740;22.908;2022-11-12T00:19:15;26.48;;;14.57;;
45792;SDS011;31495;42.740;22.908;2022-11-12T00:20:15;25.30;;;12.93;;
45792;SDS011;31495;42.740;22.908;2022-11-12T00:21:14;28.83;;;14.05;;
45792;SDS011;31495;42.740;22.908;2022-11-12T00:22:15;27.75;;;13.68;;
45792;SDS011;31495;42.740;22.908;2022-11-12T00:23:15;27.42;;;14.65;;
45792;SDS011;31495;42.740;22.908;2022-11-12T00:24:15;26.20;;;13.38;;
45792;SDS011;31495;42.740;22.908;2022-11-12T00:25:14;29.35;;;14.93;;
45792;SDS011;31495;42.740;22.908;2022-11-12T00:26:13;30.83;;;14.13;;
45792;SDS011;31495;42.740;22.908;2022-11-12T00:27:13;30.58;;;13.73;;
45792;SDS011;31495;42.740;22.908;2022-11-12T00:28:12;26.40;;;12.00;;
45792;SDS011;31495;42.740;22.908;2022-11-12T00:29:11;29.60;;;14.82;;
45792;SDS011;31495;42.740;22.908;2022-11-12T00:30:11;30.17;;;14.68;;
45792;SDS011;31495;42.740;22.908;2022-11-12T00:31:11;27.13;;;13.85;;
45792;SDS011;31495;42.740;22.908;2022-11-12T00:32:11;30.42;;;15.23;;
45792;SDS011;31495;42.740;22.908;2022-11-12T00:33:11;30.30;;;15.73;;
45792;SDS011;31495;42.740;22.908;2022-11-12T00:34:10;23.38;;;12.43;;
45792;SDS011;31495;42.740;22.908;2022-11-12T00:35:10;27.65;;;15.15;;
45792;SDS011;31495;42.740;22.908;2022-11-12T00:36:10;28.45;;;14.50;;
45792;SDS011;31495;42.740;22.908;2022-11-12T00:37:09;32.33;;;15.65;;
45792;SDS011;31495;42.740;22.908;2022-11-12T00:38:09;25.98;;;13.68;;
45792;SDS011;31495;42.740;22.908;2022-11-12T00:39:08;32.17;;;14.75;;
45792;SDS011;31495;42.740;22.908;2022-11-12T00:40:08;29.58;;;13.70;;
45792;SDS011;31495;42.740;22.908;2022-11-12T00:41:08;30.63;;;14.52;;
45792;SDS011;31495;42.740;22.908;2022-11-12T00:42:07;31.25;;;15.38;;
45792;SDS011;31495;42.740;22.908;2022-11-12T00:43:06;32.60;;;14.23;;
45792;SDS011;31495;42.740;22.908;2022-11-12T00:44:06;31.00;;;14.75;;
45792;SDS011;31495;42.740;22.908;2022-11-12T00:45:05;29.23;;;14.65;;
45792;SDS011;31495;42.740;22.908;2022-11-12T00:46:05;28.23;;;14.93;;
45792;SDS011;31495;42.740;22.908;2022-11-12T00:47:04;25.33;;;14.68;;
45792;SDS011;31495;42.740;22.908;2022-11-12T00:48:04;33.92;;;15.68;;
45792;SDS011;31495;42.740;22.908;2022-11-12T00:49:03;33.10;;;16.02;;
45792;SDS011;31495;42.740;22.908;2022-11-12T00:50:03;28.50;;;14.05;;
45792;SDS011;31495;42.740;22.908;2022-11-12T00:51:03;29.23;;;14.70;;
45792;SDS011;31495;42.740;22.908;2022-11-12T00:52:03;31.52;;;14.80;;
45792;SDS011;31495;42.740;22.908;2022-11-12T00:53:02;30.10;;;14.50;;
45792;SDS011;31495;42.740;22.908;2022-11-12T00:54:02;27.27;;;14.10;;
45792;SDS011;31495;42.740;22.908;2022-11-12T00:55:02;30.17;;;14.73;;
45792;SDS011;31495;42.740;22.908;2022-11-12T00:56:03;26.13;;;14.52;;
45792;SDS011;31495;42.740;22.908;2022-11-12T00:57:04;29.73;;;14.77;;
45792;SDS011;31495;42.740;22.908;2022-11-12T00:58:03;30.98;;;14.02;;
45792;SDS011;31495;42.740;22.908;2022-11-12T00:59:02;32.97;;;16.42;;
45792;SDS011;31495;42.740;22.908;2022-11-12T01:00:03;32.58;;;15.80;;
45792;SDS011;31495;42.740;22.908;2022-11-12T01:01:05;30.30;;;13.48;;
45792;SDS011;31495;42.740;22.908;2022-11-12T01:02:09;29.00;;;15.82;;
45792;SDS011;31495;42.740;22.908;2022-11-12T01:03:08;30.05;;;13.52;;
45792;SDS011;31495;42.740;22.908;2022-11-12T01:04:08;25.15;;;13.23;;
45792;SDS011;31495;42.740;22.908;2022-11-12T01:05:07;26.67;;;13.98;;
45792;SDS011;31495;42.740;22.908;2022-11-12T01:06:10;31.17;;;16.58;;
45792;SDS011;31495;42.740;22.908;2022-11-12T01:07:11;27.85;;;14.27;;
45792;SDS011;31495;42.740;22.908;2022-11-12T01:08:13;30.23;;;14.20;;
45792;SDS011;31495;42.740;22.908;2022-11-12T01:09:13;25.27;;;12.85;;
45792;SDS011;31495;42.740;22.908;2022-11-12T01:10:12;25.45;;;14.07;;
45792;SDS011;31495;42.740;22.908;2022-11-12T01:11:30;32.25;;;16.48;;
45792;SDS011;31495;42.740;22.908;2022-11-12T01:12:30;33.20;;;14.07;;
45792;SDS011;31495;42.740;22.908;2022-11-12T01:13:30;31.75;;;14.95;;
45792;SDS011;31495;42.740;22.908;2022-11-12T01:14:29;25.48;;;13.73;;
45792;SDS011;31495;42.740;22.908;2022-11-12T01:15:29;26.35;;;13.88;;
45792;SDS011;31495;42.740;22.908;2022-11-12T01:16:30;30.67;;;15.75;;
45792;SDS011;31495;42.740;22.908;2022-11-12T01:17:33;27.08;;;13.32;;
45792;SDS011;31495;42.740;22.908;2022-11-12T01:18:33;29.15;;;15.02;;
45792;SDS011;31495;42.740;22.908;2022-11-12T01:19:33;28.23;;;14.02;;
45792;SDS011;31495;42.740;22.908;2022-11-12T01:20:32;29.55;;;14.73;;
45792;SDS011;31495;42.740;22.908;2022-11-12T01:21:32;28.80;;;15.02;;
45792;SDS011;31495;42.740;22.908;2022-11-12T01:22:35;31.08;;;14.90;;
45792;SDS011;31495;42.740;22.908;2022-11-12T01:23:36;28.35;;;15.02;;
45792;SDS011;31495;42.740;22.908;2022-11-12T01:24:36;30.05;;;14.45;;
45792;SDS011;31495;42.740;22.908;2022-11-12T01:25:36;31.75;;;15.75;;
45792;SDS011;31495;42.740;22.908;2022-11-12T01:26:37;30.50;;;15.20;;
45792;SDS011;31495;42.740;22.908;2022-11-12T01:27:37;26.67;;;13.45;;
45792;SDS011;31495;42.740;22.908;2022-11-12T01:28:36;31.65;;;15.73;;
45792;SDS011;31495;42.740;22.908;2022-11-12T01:29:36;32.47;;;16.15;;
45792;SDS011;31495;42.740;22.908;2022-11-12T01:30:35;28.75;;;14.70;;
45792;SDS011;31495;42.740;22.908;2022-11-12T01:31:36;31.52;;;15.75;;
45792;SDS011;31495;42.740;22.908;2022-11-12T01:32:36;30.05;;;14.25;;
45792;SDS011;31495;42.740;22.908;2022-11-12T01:33:36;34.05;;;16.90;;
45792;SDS011;31495;42.740;22.908;2022-11-12T01:34:35;32.83;;;16.40;;
45792;SDS011;31495;42.740;22.908;2022-11-12T01:35:34;33.03;;;15.63;;
45792;SDS011;31495;42.740;22.908;2022-11-12T01:36:35;30.02;;;14.73;;
45792;SDS011;31495;42.740;22.908;2022-11-12T01:37:36;29.70;;;15.05;;
45792;SDS011;31495;42.740;22.908;2022-11-12T01:38:36;32.17;;;16.63;;
45792;SDS011;31495;42.740;22.908;2022-11-12T01:39:37;30.20;;;14.80;;
45792;SDS011;31495;42.740;22.908;2022-11-12T01:40:37;28.13;;;16.20;;
45792;SDS011;31495;42.740;22.908;2022-11-12T01:41:37;32.50;;;16.38;;
45792;SDS011;31495;42.740;22.908;2022-11-12T01:42:38;34.33;;;16.38;;
45792;SDS011;31495;42.740;22.908;2022-11-12T01:43:37;37.05;;;15.27;;
45792;SDS011;31495;42.740;22.908;2022-11-12T01:44:38;32.80;;;16.25;;
45792;SDS011;31495;42.740;22.908;2022-11-12T01:45:43;37.08;;;16.90;;
45792;SDS011;31495;42.740;22.908;2022-11-12T01:48:04;25.58;;;13.60;;
45792;SDS011;31495;42.740;22.908;2022-11-12T01:49:05;29.08;;;14.85;;
45792;SDS011;31495;42.740;22.908;2022-11-12T01:51:24;30.50;;;15.07;;
45792;SDS011;31495;42.740;22.908;2022-11-12T01:52:36;30.45;;;15.93;;
45792;SDS011;31495;42.740;22.908;2022-11-12T01:53:43;29.23;;;15.80;;
45792;SDS011;31495;42.740;22.908;2022-11-12T01:54:46;35.17;;;15.52;;
45792;SDS011;31495;42.740;22.908;2022-11-12T01:55:51;28.20;;;14.68;;
45792;SDS011;31495;42.740;22.908;2022-11-12T01:56:51;27.65;;;15.75;;
45792;SDS011;31495;42.740;22.908;2022-11-12T01:57:52;32.10;;;15.75;;
45792;SDS011;31495;42.740;22.908;2022-11-12T01:58:58;28.38;;;15.30;;
45792;SDS011;31495;42.740;22.908;2022-11-12T02:00:04;31.33;;;15.60;;
45792;SDS011;31495;42.740;22.908;2022-11-12T02:01:07;31.35;;;15.25;;
45792;SDS011;31495;42.740;22.908;2022-11-12T02:02:06;27.58;;;14.15;;
45792;SDS011;31495;42.740;22.908;2022-11-12T02:03:08;33.38;;;15.90;;
45792;SDS011;31495;42.740;22.908;2022-11-12T02:04:13;28.73;;;14.38;;
45792;SDS011;31495;42.740;22.908;2022-11-12T02:05:13;27.70;;;13.98;;
45792;SDS011;31495;42.740;22.908;2022-11-12T02:06:14;26.92;;;14.48;;
45792;SDS011;31495;42.740;22.908;2022-11-12T02:07:15;28.10;;;15.05;;
45792;SDS011;31495;42.740;22.908;2022-11-12T02:08:16;29.25;;;14.75;;
45792;SDS011;31495;42.740;22.908;2022-11-12T02:09:16;30.25;;;14.95;;
45792;SDS011;31495;42.740;22.908;2022-11-12T02:10:16;26.80;;;13.13;;
45792;SDS011;31495;42.740;22.908;2022-11-12T02:11:17;27.52;;;13.98;;
45792;SDS011;31495;42.740;22.908;2022-11-12T02:12:19;28.77;;;15.30;;
45792;SDS011;31495;42.740;22.908;2022-11-12T02:13:37;26.70;;;14.23;;
45792;SDS011;31495;42.740;22.908;2022-11-12T02:14:56;30.75;;;14.57;;
45792;SDS011;31495;42.740;22.908;2022-11-12T02:15:56;33.28;;;16.63;;
45792;SDS011;31495;42.740;22.908;2022-11-12T02:16:56;35.67;;;16.10;;
45792;SDS011;31495;42.740;22.908;2022-11-12T02:17:57;35.60;;;15.80;;
45792;SDS011;31495;42.740;22.908;2022-11-12T02:18:56;30.55;;;15.77;;
45792;SDS011;31495;42.740;22.908;2022-11-12T02:19:59;30.63;;;15.10;;
45792;SDS011;31495;42.740;22.908;2022-11-12T02:21:02;35.55;;;15.40;;
45792;SDS011;31495;42.740;22.908;2022-11-12T02:22:03;30.42;;;14.55;;
45792;SDS011;31495;42.740;22.908;2022-11-12T02:23:03;28.67;;;15.07;;
45792;SDS011;31495;42.740;22.908;2022-11-12T02:25:05;33.17;;;15.07;;
45792;SDS011;31495;42.740;22.908;2022-11-12T02:26:05;27.77;;;14.32;;
45792;SDS011;31495;42.740;22.908;2022-11-12T02:27:05;29.42;;;14.45;;
45792;SDS011;31495;42.740;22.908;2022-11-12T02:28:06;31.52;;;14.30;;
45792;SDS011;31495;42.740;22.908;2022-11-12T02:29:06;28.90;;;14.32;;
45792;SDS011;31495;42.740;22.908;2022-11-12T02:30:06;29.77;;;15.55;;
45792;SDS011;31495;42.740;22.908;2022-11-12T02:31:06;29.38;;;14.85;;
45792;SDS011;31495;42.740;22.908;2022-11-12T02:32:06;33.38;;;14.63;;
45792;SDS011;31495;42.740;22.908;2022-11-12T02:33:05;31.60;;;15.90;;
45792;SDS011;31495;42.740;22.908;2022-11-12T02:34:05;29.80;;;14.63;;
45792;SDS011;31495;42.740;22.908;2022-11-12T02:35:04;29.10;;;14.13;;
45792;SDS011;31495;42.740;22.908;2022-11-12T02:36:04;30.02;;;15.13;;
45792;SDS011;31495;42.740;22.908;2022-11-12T02:37:05;28.35;;;14.57;;
45792;SDS011;31495;42.740;22.908;2022-11-12T02:38:05;29.20;;;14.05;;
45792;SDS011;31495;42.740;22.908;2022-11-12T02:39:06;29.45;;;14.93;;
45792;SDS011;31495;42.740;22.908;2022-11-12T02:40:06;30.73;;;14.48;;
45792;SDS011;31495;42.740;22.908;2022-11-12T02:41:07;28.48;;;14.10;;
45792;SDS011;31495;42.740;22.908;2022-11-12T02:42:06;26.98;;;13.50;;
45792;SDS011;31495;42.740;22.908;2022-11-12T02:43:06;28.25;;;14.02;;
45792;SDS011;31495;42.740;22.908;2022-11-12T02:44:05;25.88;;;13.35;;
45792;SDS011;31495;42.740;22.908;2022-11-12T02:45:05;32.60;;;15.40;;
45792;SDS011;31495;42.740;22.908;2022-11-12T02:46:05;26.55;;;14.10;;
45792;SDS011;31495;42.740;22.908;2022-11-12T02:47:05;28.85;;;13.73;;
45792;SDS011;31495;42.740;22.908;2022-11-12T02:48:04;28.52;;;15.23;;
45792;SDS011;31495;42.740;22.908;2022-11-12T02:49:04;28.13;;;13.93;;
45792;SDS011;31495;42.740;22.908;2022-11-12T02:50:04;31.45;;;15.90;;
45792;SDS011;31495;42.740;22.908;2022-11-12T02:51:04;24.05;;;13.88;;
45792;SDS011;31495;42.740;22.908;2022-11-12T02:52:04;29.30;;;13.63;;
45792;SDS011;31495;42.740;22.908;2022-11-12T02:53:03;30.88;;;15.70;;
45792;SDS011;31495;42.740;22.908;2022-11-12T02:54:02;27.15;;;14.70;;
45792;SDS011;31495;42.740;22.908;2022-11-12T02:55:02;28.98;;;13.55;;
45792;SDS011;31495;42.740;22.908;2022-11-12T02:56:02;25.92;;;13.63;;
45792;SDS011;31495;42.740;22.908;2022-11-12T02:57:01;28.95;;;14.07;;
45792;SDS011;31495;42.740;22.908;2022-11-12T02:58:01;29.65;;;13.75;;
45792;SDS011;31495;42.740;22.908;2022-11-12T02:59:00;27.67;;;13.18;;
45792;SDS011;31495;42.740;22.908;2022-11-12T03:00:00;27.50;;;14.15;;
45792;SDS011;31495;42.740;22.908;2022-11-12T03:01:00;20.17;;;12.75;;
45792;SDS011;31495;42.740;22.908;2022-11-12T03:01:59;26.42;;;14.38;;
45792;SDS011;31495;42.740;22.908;2022-11-12T03:02:47;31.13;;;14.48;;
45792;SDS011;31495;42.740;22.908;2022-11-12T03:04:07;27.23;;;13.32;;
45792;SDS011;31495;42.740;22.908;2022-11-12T03:05:10;25.10;;;12.82;;
45792;SDS011;31495;42.740;22.908;2022-11-12T03:06:10;24.02;;;13.68;;
45792;SDS011;31495;42.740;22.908;2022-11-12T03:07:10;28.15;;;13.23;;
45792;SDS011;31495;42.740;22.908;2022-11-12T03:08:09;29.50;;;15.07;;
45792;SDS011;31495;42.740;22.908;2022-11-12T03:09:10;30.00;;;13.60;;
45792;SDS011;31495;42.740;22.908;2022-11-12T03:10:10;29.77;;;13.70;;
45792;SDS011;31495;42.740;22.908;2022-11-12T03:11:11;29.45;;;14.25;;
45792;SDS011;31495;42.740;22.908;2022-11-12T03:12:13;23.67;;;12.75;;
45792;SDS011;31495;42.740;22.908;2022-11-12T03:13:13;28.45;;;14.55;;
45792;SDS011;31495;42.740;22.908;2022-11-12T03:14:13;29.80;;;14.23;;
45792;SDS011;31495;42.740;22.908;2022-11-12T03:15:12;26.42;;;13.48;;
45792;SDS011;31495;42.740;22.908;2022-11-12T03:16:12;31.00;;;13.57;;
45792;SDS011;31495;42.740;22.908;2022-11-12T03:17:12;26.60;;;14.27;;
45792;SDS011;31495;42.740;22.908;2022-11-12T03:18:11;27.38;;;13.15;;
45792;SDS011;31495;42.740;22.908;2022-11-12T03:19:11;29.60;;;14.85;;
45792;SDS011;31495;42.740;22.908;2022-11-12T03:20:10;26.48;;;13.57;;
45792;SDS011;31495;42.740;22.908;2022-11-12T03:21:10;30.08;;;14.80;;
45792;SDS011;31495;42.740;22.908;2022-11-12T03:22:09;25.83;;;13.27;;
45792;SDS011;31495;42.740;22.908;2022-11-12T03:23:09;30.35;;;14.23;;
45792;SDS011;31495;42.740;22.908;2022-11-12T03:24:09;19.33;;;11.15;;
45792;SDS011;31495;42.740;22.908;2022-11-12T03:25:09;23.05;;;10.38;;
45792;SDS011;31495;42.740;22.908;2022-11-12T03:26:08;17.58;;;9.80;;
45792;SDS011;31495;42.740;22.908;2022-11-12T03:27:08;20.15;;;9.30;;
45792;SDS011;31495;42.740;22.908;2022-11-12T03:28:09;17.77;;;9.10;;
45792;SDS011;31495;42.740;22.908;2022-11-12T03:29:10;21.75;;;9.95;;
45792;SDS011;31495;42.740;22.908;2022-11-12T03:30:09;17.08;;;8.48;;
45792;SDS011;31495;42.740;22.908;2022-11-12T03:31:09;18.25;;;9.15;;
45792;SDS011;31495;42.740;22.908;2022-11-12T03:32:10;15.23;;;8.32;;
45792;SDS011;31495;42.740;22.908;2022-11-12T03:33:10;15.98;;;8.93;;
45792;SDS011;31495;42.740;22.908;2022-11-12T03:34:11;15.93;;;8.35;;
45792;SDS011;31495;42.740;22.908;2022-11-12T03:35:10;18.13;;;8.18;;
45792;SDS011;31495;42.740;22.908;2022-11-12T03:36:10;18.92;;;8.88;;
45792;SDS011;31495;42.740;22.908;2022-11-12T03:37:11;17.17;;;8.80;;
45792;SDS011;31495;42.740;22.908;2022-11-12T03:38:10;20.23;;;9.10;;
45792;SDS011;31495;42.740;22.908;2022-11-12T03:39:09;16.55;;;8.75;;
45792;SDS011;31495;42.740;22.908;2022-11-12T03:40:09;17.23;;;8.88;;
45792;SDS011;31495;42.740;22.908;2022-11-12T03:41:09;14.40;;;8.07;;
45792;SDS011;31495;42.740;22.908;2022-11-12T03:42:08;16.00;;;8.93;;
45792;SDS011;31495;42.740;22.908;2022-11-12T03:43:08;19.83;;;9.25;;
45792;SDS011;31495;42.740;22.908;2022-11-12T03:44:07;20.58;;;9.50;;
45792;SDS011;31495;42.740;22.908;2022-11-12T03:45:06;23.30;;;11.02;;
45792;SDS011;31495;42.740;22.908;2022-11-12T03:46:06;24.42;;;11.13;;
45792;SDS011;31495;42.740;22.908;2022-11-12T03:47:06;20.65;;;10.23;;
45792;SDS011;31495;42.740;22.908;2022-11-12T03:48:05;15.60;;;8.52;;
45792;SDS011;31495;42.740;22.908;2022-11-12T03:49:05;17.35;;;9.30;;
45792;SDS011;31495;42.740;22.908;2022-11-12T03:50:04;13.07;;;7.43;;
45792;SDS011;31495;42.740;22.908;2022-11-12T03:51:05;15.48;;;7.22;;
45792;SDS011;31495;42.740;22.908;2022-11-12T03:52:04;12.05;;;7.43;;
45792;SDS011;31495;42.740;22.908;2022-11-12T03:53:04;14.52;;;6.35;;
45792;SDS011;31495;42.740;22.908;2022-11-12T03:54:04;14.57;;;6.63;;
45792;SDS011;31495;42.740;22.908;2022-11-12T03:55:04;14.25;;;7.70;;
45792;SDS011;31495;42.740;22.908;2022-11-12T03:56:04;14.98;;;7.15;;
45792;SDS011;31495;42.740;22.908;2022-11-12T03:57:04;13.27;;;6.88;;
45792;SDS011;31495;42.740;22.908;2022-11-12T03:58:04;16.40;;;7.78;;
45792;SDS011;31495;42.740;22.908;2022-11-12T03:59:03;13.80;;;7.10;;
45792;SDS011;31495;42.740;22.908;2022-11-12T04:00:03;13.90;;;7.07;;
45792;SDS011;31495;42.740;22.908;2022-11-12T04:01:04;18.55;;;8.77;;
45792;SDS011;31495;42.740;22.908;2022-11-12T04:02:04;14.70;;;7.72;;
45792;SDS011;31495;42.740;22.908;2022-11-12T04:03:03;14.65;;;6.65;;
45792;SDS011;31495;42.740;22.908;2022-11-12T04:04:03;14.18;;;7.57;;
45792;SDS011;31495;42.740;22.908;2022-11-12T04:05:05;13.05;;;5.93;;
45792;SDS011;31495;42.740;22.908;2022-11-12T04:06:25;14.75;;;6.00;;
45792;SDS011;31495;42.740;22.908;2022-11-12T04:07:43;13.93;;;6.60;;
45792;SDS011;31495;42.740;22.908;2022-11-12T04:09:01;9.23;;;4.90;;
45792;SDS011;31495;42.740;22.908;2022-11-12T04:10:01;12.10;;;6.55;;
45792;SDS011;31495;42.740;22.908;2022-11-12T04:11:11;13.00;;;6.15;;
45792;SDS011;31495;42.740;22.908;2022-11-12T04:12:12;12.60;;;5.72;;
45792;SDS011;31495;42.740;22.908;2022-11-12T04:13:31;10.90;;;6.50;;
45792;SDS011;31495;42.740;22.908;2022-11-12T04:14:31;13.75;;;5.75;;
45792;SDS011;31495;42.740;22.908;2022-11-12T04:15:30;13.38;;;6.38;;
45792;SDS011;31495;42.740;22.908;2022-11-12T04:16:29;9.70;;;5.25;;
45792;SDS011;31495;42.740;22.908;2022-11-12T04:17:48;10.90;;;5.35;;
45792;SDS011;31495;42.740;22.908;2022-11-12T04:19:07;13.23;;;5.88;;
45792;SDS011;31495;42.740;22.908;2022-11-12T04:20:28;10.60;;;5.90;;
45792;SDS011;31495;42.740;22.908;2022-11-12T04:22:49;12.63;;;4.85;;
45792;SDS011;31495;42.740;22.908;2022-11-12T04:23:48;15.27;;;5.18;;
45792;SDS011;31495;42.740;22.908;2022-11-12T04:24:47;11.10;;;4.95;;
45792;SDS011;31495;42.740;22.908;2022-11-12T04:26:07;9.38;;;5.22;;
45792;SDS011;31495;42.740;22.908;2022-11-12T04:27:23;10.07;;;5.05;;
45792;SDS011;31495;42.740;22.908;2022-11-12T04:28:30;9.00;;;4.65;;
45792;SDS011;31495;42.740;22.908;2022-11-12T04:29:30;10.27;;;5.15;;
45792;SDS011;31495;42.740;22.908;2022-11-12T04:30:48;14.07;;;6.20;;
45792;SDS011;31495;42.740;22.908;2022-11-12T04:31:48;13.50;;;5.78;;
45792;SDS011;31495;42.740;22.908;2022-11-12T04:32:49;10.35;;;5.13;;
45792;SDS011;31495;42.740;22.908;2022-11-12T04:33:50;12.60;;;5.80;;
45792;SDS011;31495;42.740;22.908;2022-11-12T04:34:50;10.93;;;5.53;;
45792;SDS011;31495;42.740;22.908;2022-11-12T04:35:53;10.45;;;5.40;;
45792;SDS011;31495;42.740;22.908;2022-11-12T04:36:52;9.88;;;4.30;;
45792;SDS011;31495;42.740;22.908;2022-11-12T04:37:52;11.05;;;6.03;;
45792;SDS011;31495;42.740;22.908;2022-11-12T04:38:52;11.25;;;5.85;;
45792;SDS011;31495;42.740;22.908;2022-11-12T04:39:51;13.00;;;5.75;;
45792;SDS011;31495;42.740;22.908;2022-11-12T04:40:51;12.73;;;5.95;;
45792;SDS011;31495;42.740;22.908;2022-11-12T04:42:09;13.63;;;7.07;;
45792;SDS011;31495;42.740;22.908;2022-11-12T04:43:28;13.75;;;7.00;;
45792;SDS011;31495;42.740;22.908;2022-11-12T04:44:46;9.43;;;5.35;;
45792;SDS011;31495;42.740;22.908;2022-11-12T04:45:58;13.20;;;7.53;;
45792;SDS011;31495;42.740;22.908;2022-11-12T04:46:59;14.68;;;7.32;;
45792;SDS011;31495;42.740;22.908;2022-11-12T04:47:58;12.02;;;6.50;;
45792;SDS011;31495;42.740;22.908;2022-11-12T04:48:57;15.25;;;6.75;;
45792;SDS011;31495;42.740;22.908;2022-11-12T04:49:57;13.32;;;6.55;;
45792;SDS011;31495;42.740;22.908;2022-11-12T04:50:57;13.85;;;6.82;;
45792;SDS011;31495;42.740;22.908;2022-11-12T04:51:59;13.25;;;6.50;;
45792;SDS011;31495;42.740;22.908;2022-11-12T04:53:05;12.60;;;6.55;;
45792;SDS011;31495;42.740;22.908;2022-11-12T04:54:04;13.38;;;6.88;;
45792;SDS011;31495;42.740;22.908;2022-11-12T04:55:03;13.55;;;6.63;;
45792;SDS011;31495;42.740;22.908;2022-11-12T04:56:04;13.18;;;6.18;;
45792;SDS011;31495;42.740;22.908;2022-11-12T04:57:04;12.93;;;6.60;;
45792;SDS011;31495;42.740;22.908;2022-11-12T04:58:03;13.07;;;6.68;;
45792;SDS011;31495;42.740;22.908;2022-11-12T04:59:03;15.73;;;7.28;;
45792;SDS011;31495;42.740;22.908;2022-11-12T05:00:03;13.50;;;6.97;;
45792;SDS011;31495;42.740;22.908;2022-11-12T05:01:03;14.18;;;6.78;;
45792;SDS011;31495;42.740;22.908;2022-11-12T05:02:02;14.63;;;7.05;;
45792;SDS011;31495;42.740;22.908;2022-11-12T05:03:02;17.60;;;9.13;;
45792;SDS011;31495;42.740;22.908;2022-11-12T05:04:01;17.95;;;9.00;;
45792;SDS011;31495;42.740;22.908;2022-11-12T05:05:01;36.50;;;19.40;;
45792;SDS011;31495;42.740;22.908;2022-11-12T05:06:01;23.33;;;11.10;;
45792;SDS011;31495;42.740;22.908;2022-11-12T05:07:01;24.25;;;9.95;;
45792;SDS011;31495;42.740;22.908;2022-11-12T05:08:01;21.30;;;9.95;;
45792;SDS011;31495;42.740;22.908;2022-11-12T05:09:01;26.42;;;11.27;;
45792;SDS011;31495;42.740;22.908;2022-11-12T05:10:01;24.90;;;10.70;;
45792;SDS011;31495;42.740;22.908;2022-11-12T05:11:01;28.02;;;10.85;;
45792;SDS011;31495;42.740;22.908;2022-11-12T05:12:00;20.17;;;7.05;;
45792;SDS011;31495;42.740;22.908;2022-11-12T05:13:01;17.95;;;7.72;;
45792;SDS011;31495;42.740;22.908;2022-11-12T05:14:00;18.23;;;9.25;;
45792;SDS011;31495;42.740;22.908;2022-11-12T05:14:59;20.73;;;9.07;;
45792;SDS011;31495;42.740;22.908;2022-11-12T05:15:59;16.65;;;7.82;;
45792;SDS011;31495;42.740;22.908;2022-11-12T05:17:01;13.10;;;6.75;;
45792;SDS011;31495;42.740;22.908;2022-11-12T05:18:01;13.18;;;6.50;;
45792;SDS011;31495;42.740;22.908;2022-11-12T05:19:00;13.27;;;6.57;;
45792;SDS011;31495;42.740;22.908;2022-11-12T05:20:00;10.98;;;5.63;;
45792;SDS011;31495;42.740;22.908;2022-11-12T05:20:59;10.38;;;5.25;;
45792;SDS011;31495;42.740;22.908;2022-11-12T05:22:18;13.15;;;5.70;;
45792;SDS011;31495;42.740;22.908;2022-11-12T05:23:18;12.52;;;6.30;;
45792;SDS011;31495;42.740;22.908;2022-11-12T05:24:17;15.32;;;5.13;;
45792;SDS011;31495;42.740;22.908;2022-11-12T05:25:17;12.80;;;6.38;;
45792;SDS011;31495;42.740;22.908;2022-11-12T05:26:16;11.13;;;6.05;;
45792;SDS011;31495;42.740;22.908;2022-11-12T05:27:19;15.13;;;6.82;;
45792;SDS011;31495;42.740;22.908;2022-11-12T05:28:19;12.20;;;6.15;;
45792;SDS011;31495;42.740;22.908;2022-11-12T05:29:18;14.15;;;5.68;;
45792;SDS011;31495;42.740;22.908;2022-11-12T05:30:18;11.63;;;5.75;;
45792;SDS011;31495;42.740;22.908;2022-11-12T05:31:18;13.82;;;5.35;;
45792;SDS011;31495;42.740;22.908;2022-11-12T05:32:17;12.00;;;6.18;;
45792;SDS011;31495;42.740;22.908;2022-11-12T05:33:17;12.80;;;5.90;;
45792;SDS011;31495;42.740;22.908;2022-11-12T05:34:16;12.55;;;5.50;;
45792;SDS011;31495;42.740;22.908;2022-11-12T05:35:16;12.65;;;7.10;;
45792;SDS011;31495;42.740;22.908;2022-11-12T05:36:15;16.60;;;7.25;;
45792;SDS011;31495;42.740;22.908;2022-11-12T05:37:15;11.20;;;6.07;;
45792;SDS011;31495;42.740;22.908;2022-11-12T05:38:15;17.30;;;8.23;;
45792;SDS011;31495;42.740;22.908;2022-11-12T05:39:15;13.05;;;6.97;;
45792;SDS011;31495;42.740;22.908;2022-11-12T05:40:14;20.45;;;8.18;;
45792;SDS011;31495;42.740;22.908;2022-11-12T05:41:13;21.08;;;9.43;;
45792;SDS011;31495;42.740;22.908;2022-11-12T05:42:13;16.73;;;8.60;;
45792;SDS011;31495;42.740;22.908;2022-11-12T05:43:12;17.92;;;8.30;;
45792;SDS011;31495;42.740;22.908;2022-11-12T05:44:11;19.60;;;7.25;;
45792;SDS011;31495;42.740;22.908;2022-11-12T05:45:11;19.52;;;7.80;;
45792;SDS011;31495;42.740;22.908;2022-11-12T05:46:10;24.85;;;12.18;;
45792;SDS011;31495;42.740;22.908;2022-11-12T05:47:10;72.60;;;34.28;;
45792;SDS011;31495;42.740;22.908;2022-11-12T05:48:09;42.95;;;21.75;;
45792;SDS011;31495;42.740;22.908;2022-11-12T05:49:09;27.65;;;12.23;;
45792;SDS011;31495;42.740;22.908;2022-11-12T05:50:09;16.77;;;9.88;;
45792;SDS011;31495;42.740;22.908;2022-11-12T05:51:09;15.25;;;9.43;;
45792;SDS011;31495;42.740;22.908;2022-11-12T05:52:09;17.92;;;9.15;;
45792;SDS011;31495;42.740;22.908;2022-11-12T05:53:08;12.02;;;7.22;;
45792;SDS011;31495;42.740;22.908;2022-11-12T05:54:08;11.40;;;6.70;;
45792;SDS011;31495;42.740;22.908;2022-11-12T05:55:08;14.65;;;6.32;;
45792;SDS011;31495;42.740;22.908;2022-11-12T05:56:08;13.57;;;6.40;;
45792;SDS011;31495;42.740;22.908;2022-11-12T05:57:08;10.85;;;5.88;;
45792;SDS011;31495;42.740;22.908;2022-11-12T05:58:08;13.05;;;6.45;;
45792;SDS011;31495;42.740;22.908;2022-11-12T05:59:08;9.95;;;5.88;;